Wolke Sonne

Wetter Ammerndorf

Gehe zu: Roßtal

Tageswerte vom Dienstag, 08.03.2022

Optionen

Tag:
Erweitert:

Alle Werte vom Dienstag, 08.03.2022

Einen Moment bitte, die Daten werden aufbereitet...

UhrzeitTemperaturBoden 10cmBoden 20cmFeuchteLuftdruckNiederschlagEvapotranspirationWindWindböenWindrichtungSolarstrahlungUV-IndexSonne?Uhrzeit
Diagramm IconDiagramm IconDiagramm IconDiagramm IconDiagramm IconDiagramm IconDiagramm IconDiagramm IconDiagramm IconDiagramm IconDiagramm IconDiagramm IconDiagramm Icon
00:00-6,1 °C 2,2 °C 2,8 °C 84 % 1029,0 hPa 0,0 mm - 0,0 km/h 0,0 km/h NNO 0,0 W/qm 0,0 nein 00:00
00:05-6,0 °C 2,2 °C 2,8 °C 84 % 1029,0 hPa 0,0 mm 0,0 mm 0,0 km/h 0,0 km/h NNO 0,0 W/qm 0,0 nein 00:05
00:10-6,1 °C 2,2 °C 2,8 °C 84 % 1028,9 hPa 0,0 mm 0,0 mm 0,0 km/h 0,0 km/h NNO 0,0 W/qm 0,0 nein 00:10
00:15-6,0 °C 2,2 °C 2,8 °C 84 % 1029,0 hPa 0,0 mm - 0,0 km/h 0,0 km/h NNO 0,0 W/qm 0,0 nein 00:15
00:20-6,2 °C 2,2 °C 2,8 °C 84 % 1029,0 hPa 0,0 mm - 0,0 km/h 0,0 km/h NNO 0,0 W/qm 0,0 nein 00:20
00:25-6,2 °C 2,2 °C 2,8 °C 85 % 1029,0 hPa 0,0 mm - 0,0 km/h 0,0 km/h NNO 0,0 W/qm 0,0 nein 00:25
00:30-6,2 °C 2,2 °C 2,8 °C 85 % 1029,0 hPa 0,0 mm - 0,0 km/h 0,0 km/h NNO 0,0 W/qm 0,0 nein 00:30
00:35-6,3 °C 2,2 °C 2,8 °C 85 % 1029,0 hPa 0,0 mm - 0,0 km/h 0,0 km/h NNO 0,0 W/qm 0,0 nein 00:35
00:40-6,3 °C 2,2 °C 2,8 °C 86 % 1029,0 hPa 0,0 mm - 0,0 km/h 0,0 km/h NNO 0,0 W/qm 0,0 nein 00:40
00:45-6,3 °C 2,2 °C 2,8 °C 86 % 1029,0 hPa 0,0 mm - 0,0 km/h 0,0 km/h NNO 0,0 W/qm 0,0 nein 00:45
00:50-6,4 °C 2,2 °C 2,8 °C 85 % 1029,2 hPa 0,0 mm - 0,0 km/h 0,0 km/h NNO 0,0 W/qm 0,0 nein 00:50
00:55-6,4 °C 2,2 °C 2,8 °C 86 % 1029,2 hPa 0,0 mm - 0,0 km/h 0,0 km/h NNO 0,0 W/qm 0,0 nein 00:55
01:00-6,4 °C 1,7 °C 2,8 °C 86 % 1029,2 hPa 0,0 mm - 0,0 km/h 0,0 km/h NNO 0,0 W/qm 0,0 nein 01:00
01:05-6,4 °C 1,7 °C 2,8 °C 86 % 1029,3 hPa 0,0 mm 0,0 mm 0,0 km/h 0,0 km/h NNO 0,0 W/qm 0,0 nein 01:05
01:10-6,3 °C 1,7 °C 2,8 °C 86 % 1029,2 hPa 0,0 mm 0,0 mm 0,0 km/h 1,4 km/h NNO 0,0 W/qm 0,0 nein 01:10
01:15-6,3 °C 1,7 °C 2,8 °C 86 % 1029,1 hPa 0,0 mm - 0,0 km/h 3,2 km/h NNO 0,0 W/qm 0,0 nein 01:15
01:20-6,4 °C 1,7 °C 2,8 °C 86 % 1029,3 hPa 0,0 mm - 0,0 km/h 3,2 km/h NNO 0,0 W/qm 0,0 nein 01:20
01:25-6,4 °C 1,7 °C 2,8 °C 86 % 1029,2 hPa 0,0 mm - 0,0 km/h 3,2 km/h NNO 0,0 W/qm 0,0 nein 01:25
01:30-6,5 °C 1,7 °C 2,8 °C 87 % 1029,2 hPa 0,0 mm - 0,0 km/h 1,4 km/h NNO 0,0 W/qm 0,0 nein 01:30
01:35-6,5 °C 1,7 °C 2,8 °C 87 % 1029,2 hPa 0,0 mm - 0,0 km/h 0,0 km/h NNO 0,0 W/qm 0,0 nein 01:35
01:40-6,6 °C 1,7 °C 2,8 °C 87 % 1029,1 hPa 0,0 mm - 0,0 km/h 0,0 km/h NNO 0,0 W/qm 0,0 nein 01:40
01:45-6,7 °C 1,7 °C 2,8 °C 87 % 1029,2 hPa 0,0 mm - 0,0 km/h 0,0 km/h SO 0,0 W/qm 0,0 nein 01:45
01:50-6,6 °C 1,7 °C 2,8 °C 87 % 1029,0 hPa 0,0 mm - 0,0 km/h 1,4 km/h SO 0,0 W/qm 0,0 nein 01:50
01:55-6,6 °C 1,7 °C 2,8 °C 87 % 1029,0 hPa 0,0 mm - 0,0 km/h 3,2 km/h SO 0,0 W/qm 0,0 nein 01:55
UhrzeitTemperaturBoden 10cmBoden 20cmFeuchteLuftdruckNiederschlagEvapotranspirationWindWindböenWindrichtungSolarstrahlungUV-IndexSonne?Uhrzeit
02:00-6,8 °C 1,7 °C 2,8 °C 87 % 1028,9 hPa 0,0 mm - 0,0 km/h 3,2 km/h SO 0,0 W/qm 0,0 nein 02:00
02:05-6,8 °C 1,7 °C 2,8 °C 87 % 1028,8 hPa 0,0 mm 0,0 mm 0,0 km/h 3,2 km/h SO 0,0 W/qm 0,0 nein 02:05
02:10-6,8 °C 1,7 °C 2,8 °C 88 % 1028,7 hPa 0,0 mm 0,0 mm 0,0 km/h 0,0 km/h SO 0,0 W/qm 0,0 nein 02:10
02:15-6,8 °C 1,7 °C 2,8 °C 88 % 1028,6 hPa 0,0 mm - 0,0 km/h 0,0 km/h SO 0,0 W/qm 0,0 nein 02:15
02:20-6,8 °C 1,7 °C 2,8 °C 88 % 1028,6 hPa 0,0 mm - 0,0 km/h 0,0 km/h SO 0,0 W/qm 0,0 nein 02:20
02:25-7,0 °C 1,7 °C 2,8 °C 88 % 1028,7 hPa 0,0 mm - 0,0 km/h 0,0 km/h SO 0,0 W/qm 0,0 nein 02:25
02:30-6,8 °C 1,7 °C 2,8 °C 88 % 1028,6 hPa 0,0 mm - 0,0 km/h 0,0 km/h SO 0,0 W/qm 0,0 nein 02:30
02:35-6,9 °C 1,7 °C 2,8 °C 88 % 1028,5 hPa 0,0 mm - 0,0 km/h 0,0 km/h SO 0,0 W/qm 0,0 nein 02:35
02:40-7,0 °C 1,7 °C 2,8 °C 88 % 1028,5 hPa 0,0 mm - 0,0 km/h 0,0 km/h SO 0,0 W/qm 0,0 nein 02:40
02:45-7,1 °C 1,7 °C 2,8 °C 88 % 1028,5 hPa 0,0 mm - 0,0 km/h 0,0 km/h SO 0,0 W/qm 0,0 nein 02:45
02:50-7,1 °C 1,7 °C 2,8 °C 88 % 1028,5 hPa 0,0 mm - 0,0 km/h 0,0 km/h SO 0,0 W/qm 0,0 nein 02:50
02:55-7,0 °C 1,7 °C 2,8 °C 88 % 1028,4 hPa 0,0 mm - 0,0 km/h 0,0 km/h SO 0,0 W/qm 0,0 nein 02:55
03:00-7,1 °C 1,7 °C 2,8 °C 88 % 1028,4 hPa 0,0 mm - 0,0 km/h 0,0 km/h SO 0,0 W/qm 0,0 nein 03:00
03:05-7,1 °C 1,7 °C 2,8 °C 88 % 1028,4 hPa 0,0 mm 0,0 mm 0,0 km/h 0,0 km/h SO 0,0 W/qm 0,0 nein 03:05
03:10-7,2 °C 1,7 °C 2,8 °C 88 % 1028,2 hPa 0,0 mm 0,0 mm 0,0 km/h 0,0 km/h SO 0,0 W/qm 0,0 nein 03:10
03:15-7,1 °C 1,7 °C 2,8 °C 89 % 1028,2 hPa 0,0 mm - 0,0 km/h 1,4 km/h SO 0,0 W/qm 0,0 nein 03:15
03:20-7,1 °C 1,7 °C 2,8 °C 88 % 1028,0 hPa 0,0 mm - 0,0 km/h 3,2 km/h SO 0,0 W/qm 0,0 nein 03:20
03:25-7,1 °C 1,7 °C 2,8 °C 89 % 1027,9 hPa 0,0 mm - 0,0 km/h 3,2 km/h SO 0,0 W/qm 0,0 nein 03:25
03:30-7,1 °C 1,7 °C 2,8 °C 89 % 1028,1 hPa 0,0 mm - 1,4 km/h 0,0 km/h S 0,0 W/qm 0,0 nein 03:30
03:35-6,9 °C 1,7 °C 2,8 °C 89 % 1028,0 hPa 0,0 mm - 1,4 km/h 4,7 km/h S 0,0 W/qm 0,0 nein 03:35
03:40-6,9 °C 1,7 °C 2,8 °C 88 % 1028,0 hPa 0,0 mm - 0,0 km/h 4,7 km/h S 0,0 W/qm 0,0 nein 03:40
03:45-7,1 °C 1,7 °C 2,8 °C 88 % 1027,9 hPa 0,0 mm - 0,0 km/h 4,7 km/h S 0,0 W/qm 0,0 nein 03:45
03:50-7,2 °C 1,7 °C 2,8 °C 88 % 1028,0 hPa 0,0 mm - 0,0 km/h 1,4 km/h S 0,0 W/qm 0,0 nein 03:50
03:55-7,2 °C 1,7 °C 2,8 °C 88 % 1027,9 hPa 0,0 mm - 0,0 km/h 0,0 km/h S 0,0 W/qm 0,0 nein 03:55
UhrzeitTemperaturBoden 10cmBoden 20cmFeuchteLuftdruckNiederschlagEvapotranspirationWindWindböenWindrichtungSolarstrahlungUV-IndexSonne?Uhrzeit
04:00-7,2 °C 1,7 °C 2,8 °C 88 % 1027,8 hPa 0,0 mm - 0,0 km/h 1,4 km/h S 0,0 W/qm 0,0 nein 04:00
04:05-7,4 °C 1,7 °C 2,8 °C 88 % 1027,9 hPa 0,0 mm 0,0 mm 0,0 km/h 1,4 km/h S 0,0 W/qm 0,0 nein 04:05
04:10-7,4 °C 1,7 °C 2,8 °C 88 % 1027,9 hPa 0,0 mm 0,0 mm 0,0 km/h 1,4 km/h S 0,0 W/qm 0,0 nein 04:10
04:15-7,5 °C 1,7 °C 2,8 °C 88 % 1027,9 hPa 0,0 mm - 0,0 km/h 0,0 km/h S 0,0 W/qm 0,0 nein 04:15
04:20-7,5 °C 1,7 °C 2,8 °C 88 % 1027,8 hPa 0,0 mm - 0,0 km/h 0,0 km/h S 0,0 W/qm 0,0 nein 04:20
04:25-7,6 °C 1,7 °C 2,8 °C 88 % 1027,9 hPa 0,0 mm - 0,0 km/h 0,0 km/h S 0,0 W/qm 0,0 nein 04:25
04:30-7,7 °C 1,7 °C 2,8 °C 88 % 1027,9 hPa 0,0 mm - 0,0 km/h 0,0 km/h S 0,0 W/qm 0,0 nein 04:30
04:35-7,7 °C 1,7 °C 2,8 °C 89 % 1028,0 hPa 0,0 mm - 0,0 km/h 0,0 km/h S 0,0 W/qm 0,0 nein 04:35
04:40-7,6 °C 1,7 °C 2,8 °C 89 % 1028,0 hPa 0,0 mm - 0,0 km/h 0,0 km/h S 0,0 W/qm 0,0 nein 04:40
04:45-7,6 °C 1,7 °C 2,8 °C 89 % 1028,0 hPa 0,0 mm - 0,0 km/h 0,0 km/h S 0,0 W/qm 0,0 nein 04:45
04:50-7,7 °C 1,7 °C 2,8 °C 89 % 1028,0 hPa 0,0 mm - 0,0 km/h 0,0 km/h S 0,0 W/qm 0,0 nein 04:50
04:55-7,7 °C 1,7 °C 2,8 °C 89 % 1028,0 hPa 0,0 mm - 0,0 km/h 0,0 km/h S 0,0 W/qm 0,0 nein 04:55
05:00-7,8 °C 1,7 °C 2,8 °C 89 % 1028,0 hPa 0,0 mm - 0,0 km/h 0,0 km/h S 0,0 W/qm 0,0 nein 05:00
05:05-7,7 °C 1,7 °C 2,8 °C 89 % 1027,9 hPa 0,0 mm 0,0 mm 0,0 km/h 0,0 km/h S 0,0 W/qm 0,0 nein 05:05
05:10-7,8 °C 1,7 °C 2,8 °C 89 % 1027,9 hPa 0,0 mm 0,0 mm 0,0 km/h 0,0 km/h S 0,0 W/qm 0,0 nein 05:10
05:15-7,9 °C 1,7 °C 2,8 °C 89 % 1027,9 hPa 0,0 mm - 0,0 km/h 0,0 km/h S 0,0 W/qm 0,0 nein 05:15
05:20-7,8 °C 1,7 °C 2,8 °C 89 % 1027,9 hPa 0,0 mm - 0,0 km/h 0,0 km/h S 0,0 W/qm 0,0 nein 05:20
05:25-7,8 °C 1,7 °C 2,8 °C 89 % 1027,8 hPa 0,0 mm - 0,0 km/h 0,0 km/h S 0,0 W/qm 0,0 nein 05:25
05:30-7,8 °C 1,7 °C 2,8 °C 89 % 1027,8 hPa 0,0 mm - 0,0 km/h 0,0 km/h S 0,0 W/qm 0,0 nein 05:30
05:35-7,8 °C 1,7 °C 2,8 °C 89 % 1027,9 hPa 0,0 mm - 0,0 km/h 0,0 km/h S 0,0 W/qm 0,0 nein 05:35
05:40-7,8 °C 1,7 °C 2,8 °C 89 % 1027,9 hPa 0,0 mm - 0,0 km/h 0,0 km/h S 0,0 W/qm 0,0 nein 05:40
05:45-7,9 °C 1,7 °C 2,8 °C 89 % 1027,9 hPa 0,0 mm - 0,0 km/h 0,0 km/h S 0,0 W/qm 0,0 nein 05:45
05:50-7,9 °C 1,7 °C 2,8 °C 89 % 1027,9 hPa 0,0 mm - 0,0 km/h 0,0 km/h S 0,0 W/qm 0,0 nein 05:50
05:55-7,9 °C 1,7 °C 2,8 °C 89 % 1028,0 hPa 0,0 mm - 0,0 km/h 0,0 km/h S 0,0 W/qm 0,0 nein 05:55
UhrzeitTemperaturBoden 10cmBoden 20cmFeuchteLuftdruckNiederschlagEvapotranspirationWindWindböenWindrichtungSolarstrahlungUV-IndexSonne?Uhrzeit
06:00-7,9 °C 1,7 °C 2,8 °C 89 % 1028,0 hPa 0,0 mm - 0,0 km/h 0,0 km/h S 0,0 W/qm 0,0 nein 06:00
06:05-8,1 °C 1,7 °C 2,8 °C 89 % 1028,2 hPa 0,0 mm 0,0 mm 0,0 km/h 0,0 km/h S 0,0 W/qm 0,0 nein 06:05
06:10-8,2 °C 1,7 °C 2,8 °C 89 % 1028,1 hPa 0,0 mm 0,0 mm 0,0 km/h 0,0 km/h S 0,0 W/qm 0,0 nein 06:10
06:15-8,1 °C 1,7 °C 2,8 °C 89 % 1028,1 hPa 0,0 mm - 0,0 km/h 0,0 km/h S 0,0 W/qm 0,0 nein 06:15
06:20-8,2 °C 1,7 °C 2,8 °C 89 % 1028,1 hPa 0,0 mm - 0,0 km/h 0,0 km/h S 0,0 W/qm 0,0 nein 06:20
06:25-8,1 °C 1,7 °C 2,8 °C 89 % 1028,2 hPa 0,0 mm - 0,0 km/h 0,0 km/h S 0,0 W/qm 0,0 nein 06:25
06:30-8,2 °C 1,7 °C 2,8 °C 89 % 1028,3 hPa 0,0 mm - 0,0 km/h 0,0 km/h S 0,0 W/qm 0,0 nein 06:30
06:35-8,2 °C 1,7 °C 2,8 °C 89 % 1028,2 hPa 0,0 mm - 0,0 km/h 0,0 km/h S 0,0 W/qm 0,0 nein 06:35
06:40-8,2 °C 1,7 °C 2,8 °C 90 % 1028,2 hPa 0,0 mm - 0,0 km/h 0,0 km/h S 0,0 W/qm 0,0 nein 06:40
06:45-8,4 °C 1,7 °C 2,8 °C 89 % 1028,3 hPa 0,0 mm - 0,0 km/h 0,0 km/h S 5,0 W/qm 0,0 nein 06:45
06:50-8,3 °C 1,7 °C 2,8 °C 90 % 1028,4 hPa 0,0 mm - 0,0 km/h 0,0 km/h S 7,0 W/qm 0,0 nein 06:50
06:55-8,2 °C 1,7 °C 2,8 °C 89 % 1028,5 hPa 0,0 mm - 0,0 km/h 0,0 km/h S 9,0 W/qm 0,0 nein 06:55
07:00-8,2 °C 1,7 °C 2,8 °C 90 % 1028,5 hPa 0,0 mm - 0,0 km/h 0,0 km/h S 11,0 W/qm 0,0 nein 07:00
07:05-8,2 °C 1,7 °C 2,8 °C 90 % 1028,4 hPa 0,0 mm 0,0 mm 0,0 km/h 0,0 km/h S 14,0 W/qm 0,0 nein 07:05
07:10-8,1 °C 1,7 °C 2,8 °C 90 % 1028,5 hPa 0,0 mm 0,0 mm 0,0 km/h 0,0 km/h S 18,0 W/qm 0,0 nein 07:10
07:15-8,1 °C 1,7 °C 2,8 °C 90 % 1028,5 hPa 0,0 mm - 0,0 km/h 0,0 km/h S 19,0 W/qm 0,0 nein 07:15
07:20-8,0 °C 1,7 °C 2,8 °C 90 % 1028,5 hPa 0,0 mm - 0,0 km/h 0,0 km/h S 21,0 W/qm 0,0 nein 07:20
07:25-7,9 °C 1,7 °C 2,8 °C 90 % 1028,6 hPa 0,0 mm - 0,0 km/h 0,0 km/h S 23,0 W/qm 0,0 nein 07:25
07:30-7,8 °C 1,7 °C 2,8 °C 90 % 1028,6 hPa 0,0 mm - 0,0 km/h 0,0 km/h S 25,0 W/qm 0,0 nein 07:30
07:35-7,8 °C 1,7 °C 2,8 °C 90 % 1028,4 hPa 0,0 mm - 0,0 km/h 0,0 km/h S 26,0 W/qm 0,0 nein 07:35
07:40-7,7 °C 1,7 °C 2,8 °C 90 % 1028,4 hPa 0,0 mm - 0,0 km/h 0,0 km/h S 28,0 W/qm 0,0 nein 07:40
07:45-7,6 °C 1,1 °C 2,8 °C 90 % 1028,5 hPa 0,0 mm - 0,0 km/h 0,0 km/h S 30,0 W/qm 0,0 nein 07:45
07:50-7,4 °C 1,1 °C 2,8 °C 90 % 1028,4 hPa 0,0 mm - 0,0 km/h 0,0 km/h W 33,0 W/qm 0,0 nein 07:50
07:55-7,2 °C 1,1 °C 2,8 °C 90 % 1028,5 hPa 0,0 mm - 0,0 km/h 0,0 km/h W 39,0 W/qm 0,0 nein 07:55
UhrzeitTemperaturBoden 10cmBoden 20cmFeuchteLuftdruckNiederschlagEvapotranspirationWindWindböenWindrichtungSolarstrahlungUV-IndexSonne?Uhrzeit
08:00-6,9 °C 1,1 °C 2,2 °C 90 % 1028,4 hPa 0,0 mm - 0,0 km/h 0,0 km/h W 42,0 W/qm 0,0 nein 08:00
08:05-6,6 °C 1,1 °C 2,2 °C 90 % 1028,4 hPa 0,0 mm 0,0 mm 0,0 km/h 0,0 km/h W 46,0 W/qm 0,0 nein 08:05
08:10-6,4 °C 1,1 °C 2,2 °C 90 % 1028,3 hPa 0,0 mm 0,0 mm 0,0 km/h 0,0 km/h W 46,0 W/qm 0,0 nein 08:10
08:15-6,2 °C 1,1 °C 2,2 °C 89 % 1028,3 hPa 0,0 mm - 0,0 km/h 0,0 km/h W 49,0 W/qm 0,0 nein 08:15
08:20-6,0 °C 1,1 °C 2,2 °C 89 % 1028,2 hPa 0,0 mm - 0,0 km/h 0,0 km/h W 49,0 W/qm 0,0 nein 08:20
08:25-5,8 °C 1,1 °C 2,2 °C 89 % 1028,1 hPa 0,0 mm - 0,0 km/h 0,0 km/h W 51,0 W/qm 0,0 nein 08:25
08:30-5,4 °C 1,1 °C 2,2 °C 89 % 1028,1 hPa 0,0 mm - 0,0 km/h 0,0 km/h W 51,0 W/qm 0,0 nein 08:30
08:35-4,8 °C 1,1 °C 2,2 °C 89 % 1027,9 hPa 0,0 mm - 1,4 km/h 3,2 km/h W 53,0 W/qm 0,0 nein 08:35
08:40-4,3 °C 1,1 °C 2,2 °C 88 % 1027,9 hPa 0,0 mm - 1,4 km/h 3,2 km/h SSW 54,0 W/qm 0,0 nein 08:40
08:45-3,9 °C 1,1 °C 2,2 °C 86 % 1027,8 hPa 0,0 mm - 1,4 km/h 4,7 km/h SSW 169,0 W/qm 0,5 nein 08:45
08:50-3,6 °C 1,1 °C 2,2 °C 85 % 1027,8 hPa 0,0 mm - 0,0 km/h 4,7 km/h SSW 258,0 W/qm 0,5 ja 08:50
08:55-3,2 °C 1,1 °C 2,2 °C 84 % 1027,7 hPa 0,0 mm - 0,0 km/h 4,7 km/h SSW 297,0 W/qm 0,6 ja 08:55
09:00-3,1 °C 1,1 °C 2,2 °C 83 % 1027,7 hPa 0,0 mm - 0,0 km/h 1,4 km/h SSW 318,0 W/qm 0,6 ja 09:00
09:05-2,7 °C 1,1 °C 2,2 °C 83 % 1027,6 hPa 0,0 mm 0,0 mm 0,0 km/h 0,0 km/h SSW 318,0 W/qm 0,7 ja 09:05
09:10-2,3 °C 1,1 °C 2,2 °C 82 % 1027,6 hPa 0,0 mm 0,0 mm 0,0 km/h 0,0 km/h SSW 330,0 W/qm 0,7 ja 09:10
09:15-1,8 °C 1,1 °C 2,2 °C 81 % 1027,6 hPa 0,0 mm - 0,0 km/h 0,0 km/h SSW 343,0 W/qm 0,8 ja 09:15
09:20-1,2 °C 1,1 °C 2,2 °C 80 % 1027,5 hPa 0,0 mm - 1,4 km/h 0,0 km/h SSW 364,0 W/qm 0,8 ja 09:20
09:25-0,7 °C 1,1 °C 2,2 °C 78 % 1027,4 hPa 0,0 mm - 3,2 km/h 4,7 km/h S 376,0 W/qm 0,9 ja 09:25
09:30-0,3 °C 1,1 °C 2,2 °C 77 % 1027,4 hPa 0,0 mm - 3,2 km/h 4,7 km/h SSO 388,0 W/qm 0,9 ja 09:30
09:35-0,1 °C 1,1 °C 2,2 °C 76 % 1027,3 hPa 0,0 mm - 3,2 km/h 6,5 km/h SSO 404,0 W/qm 1,0 ja 09:35
09:400,3 °C 1,1 °C 2,2 °C 75 % 1027,2 hPa 0,0 mm - 4,7 km/h 9,7 km/h SO 417,0 W/qm 1,0 ja 09:40
09:450,6 °C 1,1 °C 2,2 °C 74 % 1027,1 hPa 0,0 mm - 3,2 km/h 11,2 km/h S 427,0 W/qm 1,1 ja 09:45
09:501,0 °C 1,1 °C 2,2 °C 73 % 1027,1 hPa 0,0 mm - 3,2 km/h 11,2 km/h SSW 436,0 W/qm 1,1 ja 09:50
09:551,3 °C 1,1 °C 2,2 °C 71 % 1027,0 hPa 0,0 mm - 3,2 km/h 11,2 km/h S 450,0 W/qm 1,2 ja 09:55
UhrzeitTemperaturBoden 10cmBoden 20cmFeuchteLuftdruckNiederschlagEvapotranspirationWindWindböenWindrichtungSolarstrahlungUV-IndexSonne?Uhrzeit
10:001,4 °C 1,1 °C 2,2 °C 70 % 1027,0 hPa 0,0 mm - 1,4 km/h 9,7 km/h SSO 461,0 W/qm 1,2 ja 10:00
10:051,5 °C 1,1 °C 2,2 °C 70 % 1027,0 hPa 0,0 mm 0,2 mm 1,4 km/h 9,7 km/h SSO 469,0 W/qm 1,3 ja 10:05
10:101,8 °C 1,1 °C 2,2 °C 70 % 1026,9 hPa 0,0 mm 0,2 mm 1,4 km/h 9,7 km/h SO 482,0 W/qm 1,3 ja 10:10
10:152,2 °C 1,1 °C 2,2 °C 68 % 1026,9 hPa 0,0 mm - 1,4 km/h 7,9 km/h ONO 490,0 W/qm 1,3 ja 10:15
10:202,6 °C 1,1 °C 2,2 °C 67 % 1026,8 hPa 0,0 mm - 1,4 km/h 6,5 km/h SSW 501,0 W/qm 1,4 ja 10:20
10:252,6 °C 1,1 °C 2,2 °C 68 % 1026,8 hPa 0,0 mm - 3,2 km/h 6,5 km/h NO 508,0 W/qm 1,4 ja 10:25
10:302,8 °C 1,1 °C 2,2 °C 66 % 1026,8 hPa 0,0 mm - 4,7 km/h 11,2 km/h NO 515,0 W/qm 1,5 ja 10:30
10:353,2 °C 1,1 °C 2,2 °C 67 % 1026,7 hPa 0,0 mm - 3,2 km/h 11,2 km/h SO 522,0 W/qm 1,5 ja 10:35
10:403,3 °C 1,1 °C 2,2 °C 63 % 1026,6 hPa 0,0 mm - 3,2 km/h 11,2 km/h S 534,0 W/qm 1,5 ja 10:40
10:453,3 °C 1,1 °C 2,2 °C 62 % 1026,5 hPa 0,0 mm - 4,7 km/h 7,9 km/h NO 541,0 W/qm 1,6 ja 10:45
10:503,4 °C 1,1 °C 2,2 °C 62 % 1026,6 hPa 0,0 mm - 4,7 km/h 9,7 km/h S 548,0 W/qm 1,6 ja 10:50
10:554,2 °C 1,1 °C 2,2 °C 59 % 1026,3 hPa 0,0 mm - 3,2 km/h 11,2 km/h NO 555,0 W/qm 1,6 ja 10:55
11:004,2 °C 1,1 °C 2,2 °C 61 % 1026,3 hPa 0,0 mm - 4,7 km/h 11,2 km/h NO 561,0 W/qm 1,7 ja 11:00
11:054,5 °C 1,1 °C 2,2 °C 54 % 1026,2 hPa 0,0 mm 0,4 mm 6,5 km/h 13,0 km/h SW 570,0 W/qm 1,7 ja 11:05
11:104,8 °C 1,1 °C 2,2 °C 52 % 1026,1 hPa 0,0 mm 0,4 mm 6,5 km/h 17,6 km/h SSO 578,0 W/qm 1,7 ja 11:10
11:154,9 °C 1,1 °C 2,2 °C 53 % 1026,0 hPa 0,0 mm - 6,5 km/h 17,6 km/h SO 584,0 W/qm 1,8 ja 11:15
11:204,9 °C 1,1 °C 2,2 °C 52 % 1026,0 hPa 0,0 mm - 3,2 km/h 17,6 km/h SSO 591,0 W/qm 1,8 ja 11:20
11:255,3 °C 1,1 °C 2,2 °C 53 % 1025,8 hPa 0,0 mm - 4,7 km/h 14,4 km/h SSO 591,0 W/qm 1,8 ja 11:25
11:305,4 °C 1,1 °C 2,2 °C 54 % 1025,9 hPa 0,0 mm - 3,2 km/h 14,4 km/h O 591,0 W/qm 1,8 ja 11:30
11:355,3 °C 1,1 °C 2,2 °C 51 % 1025,8 hPa 0,0 mm - 4,7 km/h 14,4 km/h ONO 601,0 W/qm 1,9 ja 11:35
11:405,4 °C 1,1 °C 2,2 °C 50 % 1025,8 hPa 0,0 mm - 7,9 km/h 17,6 km/h ONO 606,0 W/qm 1,9 ja 11:40
11:455,7 °C 1,1 °C 2,2 °C 50 % 1025,8 hPa 0,0 mm - 7,9 km/h 17,6 km/h SSO 615,0 W/qm 1,9 ja 11:45
11:506,3 °C 1,1 °C 2,2 °C 46 % 1025,7 hPa 0,0 mm - 6,5 km/h 20,9 km/h SSO 621,0 W/qm 2,0 ja 11:50
11:556,3 °C 1,7 °C 2,2 °C 43 % 1025,6 hPa 0,0 mm - 4,7 km/h 20,9 km/h SSO 621,0 W/qm 2,0 ja 11:55
UhrzeitTemperaturBoden 10cmBoden 20cmFeuchteLuftdruckNiederschlagEvapotranspirationWindWindböenWindrichtungSolarstrahlungUV-IndexSonne?Uhrzeit
12:006,6 °C 1,7 °C 2,2 °C 44 % 1025,4 hPa 0,0 mm - 4,7 km/h 20,9 km/h OSO 622,0 W/qm 2,0 ja 12:00
12:056,6 °C 1,7 °C 2,2 °C 43 % 1025,3 hPa 0,0 mm 0,6 mm 4,7 km/h 13,0 km/h SSO 628,0 W/qm 2,0 ja 12:05
12:106,6 °C 1,7 °C 2,2 °C 43 % 1025,3 hPa 0,0 mm 0,6 mm 6,5 km/h 17,6 km/h SSO 631,0 W/qm 2,0 ja 12:10
12:156,4 °C 1,7 °C 2,2 °C 43 % 1025,4 hPa 0,0 mm - 4,7 km/h 17,6 km/h ONO 631,0 W/qm 2,0 ja 12:15
12:206,4 °C 1,7 °C 2,2 °C 43 % 1025,2 hPa 0,0 mm - 4,7 km/h 17,6 km/h NO 631,0 W/qm 2,1 ja 12:20
12:256,6 °C 1,7 °C 2,2 °C 42 % 1025,1 hPa 0,0 mm - 4,7 km/h 17,6 km/h SO 633,0 W/qm 2,1 ja 12:25
12:306,7 °C 1,7 °C 2,2 °C 42 % 1025,0 hPa 0,0 mm - 4,7 km/h 17,6 km/h SSO 631,0 W/qm 2,0 ja 12:30
12:356,7 °C 1,7 °C 2,2 °C 41 % 1024,9 hPa 0,0 mm - 4,7 km/h 13,0 km/h NNO 635,0 W/qm 2,1 ja 12:35
12:406,3 °C 1,7 °C 2,2 °C 42 % 1025,0 hPa 0,0 mm - 7,9 km/h 16,2 km/h O 633,0 W/qm 2,0 ja 12:40
12:456,6 °C 1,7 °C 2,2 °C 42 % 1025,0 hPa 0,0 mm - 7,9 km/h 17,6 km/h SSO 631,0 W/qm 2,0 ja 12:45
12:506,7 °C 1,7 °C 2,2 °C 42 % 1024,8 hPa 0,0 mm - 6,5 km/h 17,6 km/h NNO 629,0 W/qm 2,0 ja 12:50
12:556,7 °C 1,7 °C 2,2 °C 42 % 1024,9 hPa 0,0 mm - 6,5 km/h 17,6 km/h NO 628,0 W/qm 2,0 ja 12:55
13:007,2 °C 1,7 °C 2,2 °C 43 % 1024,9 hPa 0,0 mm - 4,7 km/h 16,2 km/h SSW 626,0 W/qm 2,0 ja 13:00
13:056,9 °C 1,7 °C 2,2 °C 41 % 1024,9 hPa 0,0 mm 0,9 mm 6,5 km/h 14,4 km/h NO 626,0 W/qm 2,0 ja 13:05
13:106,7 °C 1,7 °C 2,2 °C 42 % 1024,9 hPa 0,0 mm 0,9 mm 7,9 km/h 14,4 km/h SO 622,0 W/qm 2,0 ja 13:10
13:156,9 °C 1,7 °C 2,2 °C 41 % 1024,8 hPa 0,0 mm - 7,9 km/h 16,2 km/h S 619,0 W/qm 1,9 ja 13:15
13:207,4 °C 1,7 °C 2,2 °C 40 % 1024,8 hPa 0,0 mm - 7,9 km/h 17,6 km/h SSW 617,0 W/qm 1,9 ja 13:20
13:257,3 °C 1,7 °C 2,2 °C 40 % 1024,8 hPa 0,0 mm - 7,9 km/h 17,6 km/h ONO 613,0 W/qm 1,9 ja 13:25
13:307,1 °C 1,7 °C 2,2 °C 40 % 1024,6 hPa 0,0 mm - 6,5 km/h 17,6 km/h NNO 610,0 W/qm 1,9 ja 13:30
13:356,9 °C 2,2 °C 2,2 °C 39 % 1024,6 hPa 0,0 mm - 7,9 km/h 20,9 km/h O 605,0 W/qm 1,8 ja 13:35
13:407,2 °C 2,2 °C 2,2 °C 41 % 1024,5 hPa 0,0 mm - 4,7 km/h 20,9 km/h SSW 599,0 W/qm 1,8 ja 13:40
13:457,4 °C 2,2 °C 2,2 °C 39 % 1024,5 hPa 0,0 mm - 4,7 km/h 20,9 km/h S 594,0 W/qm 1,8 ja 13:45
13:507,8 °C 2,2 °C 2,2 °C 38 % 1024,4 hPa 0,0 mm - 6,5 km/h 20,9 km/h S 592,0 W/qm 1,8 ja 13:50
13:557,6 °C 2,2 °C 2,2 °C 38 % 1024,6 hPa 0,0 mm - 6,5 km/h 17,6 km/h O 585,0 W/qm 1,7 ja 13:55
UhrzeitTemperaturBoden 10cmBoden 20cmFeuchteLuftdruckNiederschlagEvapotranspirationWindWindböenWindrichtungSolarstrahlungUV-IndexSonne?Uhrzeit
14:007,2 °C 2,2 °C 2,2 °C 39 % 1024,4 hPa 0,0 mm - 4,7 km/h 17,6 km/h SO 577,0 W/qm 1,7 ja 14:00
14:057,8 °C 2,2 °C 2,2 °C 39 % 1024,3 hPa 0,0 mm 1,2 mm 3,2 km/h 17,6 km/h ONO 573,0 W/qm 1,6 ja 14:05
14:107,9 °C 2,2 °C 2,2 °C 40 % 1024,4 hPa 0,0 mm 1,2 mm 4,7 km/h 17,6 km/h SSO 563,0 W/qm 1,6 ja 14:10
14:157,7 °C 2,2 °C 2,2 °C 36 % 1024,3 hPa 0,0 mm - 4,7 km/h 14,4 km/h ONO 555,0 W/qm 1,6 ja 14:15
14:207,7 °C 2,2 °C 2,2 °C 41 % 1024,3 hPa 0,0 mm - 4,7 km/h 14,4 km/h SW 550,0 W/qm 1,5 ja 14:20
14:257,8 °C 2,2 °C 2,2 °C 39 % 1024,4 hPa 0,0 mm - 6,5 km/h 14,4 km/h SO 543,0 W/qm 1,5 ja 14:25
14:308,0 °C 2,2 °C 2,8 °C 36 % 1024,3 hPa 0,0 mm - 6,5 km/h 19,4 km/h S 534,0 W/qm 1,5 ja 14:30
14:358,0 °C 2,2 °C 2,8 °C 36 % 1024,4 hPa 0,0 mm - 6,5 km/h 19,4 km/h SSO 527,0 W/qm 1,4 ja 14:35
14:407,9 °C 2,8 °C 2,8 °C 37 % 1024,4 hPa 0,0 mm - 4,7 km/h 19,4 km/h SO 519,0 W/qm 1,4 ja 14:40
14:457,9 °C 2,8 °C 2,8 °C 36 % 1024,3 hPa 0,0 mm - 4,7 km/h 16,2 km/h ONO 512,0 W/qm 1,3 ja 14:45
14:508,1 °C 2,8 °C 2,8 °C 36 % 1024,2 hPa 0,0 mm - 6,5 km/h 16,2 km/h S 501,0 W/qm 1,3 ja 14:50
14:558,3 °C 2,8 °C 2,8 °C 35 % 1024,2 hPa 0,0 mm - 6,5 km/h 14,4 km/h S 496,0 W/qm 1,3 ja 14:55
15:008,2 °C 2,8 °C 2,8 °C 34 % 1024,1 hPa 0,0 mm - 6,5 km/h 14,4 km/h SSO 485,0 W/qm 1,2 ja 15:00
15:058,1 °C 2,8 °C 2,8 °C 35 % 1024,2 hPa 0,0 mm 1,5 mm 7,9 km/h 22,7 km/h S 471,0 W/qm 1,2 ja 15:05
15:108,0 °C 2,8 °C 2,8 °C 34 % 1024,3 hPa 0,0 mm 1,5 mm 7,9 km/h 22,7 km/h SSO 462,0 W/qm 1,1 ja 15:10
15:158,1 °C 2,8 °C 2,8 °C 34 % 1024,3 hPa 0,0 mm - 7,9 km/h 22,7 km/h OSO 452,0 W/qm 1,1 ja 15:15
15:208,1 °C 2,8 °C 2,8 °C 34 % 1024,3 hPa 0,0 mm - 6,5 km/h 22,7 km/h SO 439,0 W/qm 1,0 ja 15:20
15:258,0 °C 2,8 °C 2,8 °C 35 % 1024,3 hPa 0,0 mm - 6,5 km/h 17,6 km/h O 427,0 W/qm 1,0 ja 15:25
15:307,6 °C 2,8 °C 2,8 °C 36 % 1024,1 hPa 0,0 mm - 6,5 km/h 17,6 km/h SSO 417,0 W/qm 0,9 ja 15:30
15:357,6 °C 2,8 °C 2,8 °C 37 % 1024,1 hPa 0,0 mm - 7,9 km/h 20,9 km/h SO 403,0 W/qm 0,9 ja 15:35
15:407,8 °C 2,8 °C 2,8 °C 34 % 1024,0 hPa 0,0 mm - 7,9 km/h 20,9 km/h S 392,0 W/qm 0,8 ja 15:40
15:457,7 °C 2,8 °C 2,8 °C 36 % 1024,0 hPa 0,0 mm - 6,5 km/h 20,9 km/h S 378,0 W/qm 0,8 ja 15:45
15:507,8 °C 2,8 °C 2,8 °C 35 % 1024,0 hPa 0,0 mm - 4,7 km/h 19,4 km/h SSO 366,0 W/qm 0,8 ja 15:50
15:557,8 °C 2,8 °C 2,8 °C 36 % 1023,9 hPa 0,0 mm - 3,2 km/h 19,4 km/h OSO 352,0 W/qm 0,7 ja 15:55
UhrzeitTemperaturBoden 10cmBoden 20cmFeuchteLuftdruckNiederschlagEvapotranspirationWindWindböenWindrichtungSolarstrahlungUV-IndexSonne?Uhrzeit
16:008,1 °C 2,8 °C 2,8 °C 36 % 1023,9 hPa 0,0 mm - 4,7 km/h 13,0 km/h S 339,0 W/qm 0,7 ja 16:00
16:058,0 °C 2,8 °C 2,8 °C 35 % 1023,8 hPa 0,0 mm 1,7 mm 6,5 km/h 16,2 km/h SSW 329,0 W/qm 0,6 ja 16:05
16:107,8 °C 2,8 °C 2,8 °C 36 % 1023,8 hPa 0,0 mm 1,7 mm 4,7 km/h 17,6 km/h ONO 311,0 W/qm 0,6 ja 16:10
16:157,9 °C 2,8 °C 2,8 °C 35 % 1023,6 hPa 0,0 mm - 3,2 km/h 17,6 km/h ONO 295,0 W/qm 0,5 ja 16:15
16:208,1 °C 2,8 °C 2,8 °C 34 % 1023,7 hPa 0,0 mm - 4,7 km/h 17,6 km/h O 279,0 W/qm 0,5 ja 16:20
16:258,0 °C 2,8 °C 2,8 °C 35 % 1023,6 hPa 0,0 mm - 4,7 km/h 11,2 km/h SSO 262,0 W/qm 0,5 ja 16:25
16:307,8 °C 2,8 °C 2,8 °C 35 % 1023,7 hPa 0,0 mm - 4,7 km/h 14,4 km/h NO 243,0 W/qm 0,0 ja 16:30
16:357,2 °C 2,8 °C 2,8 °C 37 % 1023,7 hPa 0,0 mm - 4,7 km/h 14,4 km/h ONO 225,0 W/qm 0,0 ja 16:35
16:407,4 °C 2,8 °C 2,8 °C 37 % 1023,7 hPa 0,0 mm - 3,2 km/h 14,4 km/h S 209,0 W/qm 0,0 nein 16:40
16:457,9 °C 2,8 °C 2,8 °C 35 % 1023,7 hPa 0,0 mm - 3,2 km/h 13,0 km/h S 192,0 W/qm 0,0 nein 16:45
16:507,8 °C 3,3 °C 2,8 °C 36 % 1023,7 hPa 0,0 mm - 4,7 km/h 13,0 km/h SO 174,0 W/qm 0,0 nein 16:50
16:557,7 °C 3,3 °C 2,8 °C 35 % 1023,7 hPa 0,0 mm - 4,7 km/h 13,0 km/h SO 156,0 W/qm 0,0 nein 16:55
17:007,3 °C 3,3 °C 2,8 °C 37 % 1023,8 hPa 0,0 mm - 3,2 km/h 13,0 km/h O 121,0 W/qm 0,0 nein 17:00
17:057,3 °C 3,3 °C 2,8 °C 36 % 1023,8 hPa 0,0 mm 1,9 mm 3,2 km/h 13,0 km/h S 90,0 W/qm 0,0 nein 17:05
17:107,4 °C 3,3 °C 2,8 °C 36 % 1023,8 hPa 0,0 mm 1,9 mm 4,7 km/h 13,0 km/h SSO 37,0 W/qm 0,0 nein 17:10
17:157,3 °C 3,3 °C 2,8 °C 36 % 1023,8 hPa 0,0 mm - 4,7 km/h 14,4 km/h SO 30,0 W/qm 0,0 nein 17:15
17:207,2 °C 3,3 °C 2,8 °C 37 % 1023,9 hPa 0,0 mm - 3,2 km/h 14,4 km/h SSO 30,0 W/qm 0,0 nein 17:20
17:257,0 °C 3,3 °C 2,8 °C 37 % 1023,8 hPa 0,0 mm - 3,2 km/h 14,4 km/h SSO 26,0 W/qm 0,0 nein 17:25
17:306,8 °C 3,3 °C 2,8 °C 38 % 1023,8 hPa 0,0 mm - 3,2 km/h 9,7 km/h SSO 25,0 W/qm 0,0 nein 17:30
17:356,7 °C 2,8 °C 2,8 °C 38 % 1024,0 hPa 0,0 mm - 3,2 km/h 9,7 km/h S 21,0 W/qm 0,0 nein 17:35
17:406,4 °C 2,8 °C 2,8 °C 40 % 1024,0 hPa 0,0 mm - 1,4 km/h 7,9 km/h S 19,0 W/qm 0,0 nein 17:40
17:456,2 °C 2,8 °C 2,8 °C 41 % 1024,1 hPa 0,0 mm - 0,0 km/h 7,9 km/h S 18,0 W/qm 0,0 nein 17:45
17:505,1 °C 2,8 °C 2,8 °C 45 % 1024,2 hPa 0,0 mm - 0,0 km/h 6,5 km/h S 16,0 W/qm 0,0 nein 17:50
17:554,2 °C 2,8 °C 2,8 °C 48 % 1024,3 hPa 0,0 mm - 0,0 km/h 3,2 km/h S 14,0 W/qm 0,0 nein 17:55
UhrzeitTemperaturBoden 10cmBoden 20cmFeuchteLuftdruckNiederschlagEvapotranspirationWindWindböenWindrichtungSolarstrahlungUV-IndexSonne?Uhrzeit
18:003,3 °C 2,8 °C 2,8 °C 50 % 1024,5 hPa 0,0 mm - 0,0 km/h 1,4 km/h S 11,0 W/qm 0,0 nein 18:00
18:053,1 °C 2,8 °C 2,8 °C 52 % 1024,5 hPa 0,0 mm 1,9 mm 0,0 km/h 3,2 km/h S 9,0 W/qm 0,0 nein 18:05
18:102,6 °C 2,8 °C 2,8 °C 53 % 1024,6 hPa 0,0 mm 1,9 mm 0,0 km/h 3,2 km/h S 7,0 W/qm 0,0 nein 18:10
18:152,3 °C 2,8 °C 2,8 °C 54 % 1024,6 hPa 0,0 mm - 0,0 km/h 1,4 km/h S 5,0 W/qm 0,0 nein 18:15
18:202,0 °C 2,8 °C 2,8 °C 56 % 1024,7 hPa 0,0 mm - 0,0 km/h 0,0 km/h S 0,0 W/qm 0,0 nein 18:20
18:251,5 °C 2,8 °C 2,8 °C 57 % 1024,7 hPa 0,0 mm - 0,0 km/h 0,0 km/h S 0,0 W/qm 0,0 nein 18:25
18:301,4 °C 2,8 °C 2,8 °C 56 % 1024,9 hPa 0,0 mm - 0,0 km/h 0,0 km/h S 0,0 W/qm 0,0 nein 18:30
18:351,1 °C 2,8 °C 2,8 °C 59 % 1025,0 hPa 0,0 mm - 0,0 km/h 0,0 km/h S 0,0 W/qm 0,0 nein 18:35
18:400,9 °C 2,8 °C 2,8 °C 59 % 1025,0 hPa 0,0 mm - 0,0 km/h 0,0 km/h S 0,0 W/qm 0,0 nein 18:40
18:450,7 °C 2,8 °C 2,8 °C 60 % 1025,1 hPa 0,0 mm - 0,0 km/h 0,0 km/h S 0,0 W/qm 0,0 nein 18:45
18:500,3 °C 2,8 °C 2,8 °C 61 % 1025,3 hPa 0,0 mm - 0,0 km/h 0,0 km/h S 0,0 W/qm 0,0 nein 18:50
18:550,4 °C 2,8 °C 2,8 °C 59 % 1025,3 hPa 0,0 mm - 0,0 km/h 0,0 km/h S 0,0 W/qm 0,0 nein 18:55
19:000,3 °C 2,8 °C 2,8 °C 62 % 1025,3 hPa 0,0 mm - 0,0 km/h 0,0 km/h S 0,0 W/qm 0,0 nein 19:00
19:05-0,2 °C 2,8 °C 2,8 °C 64 % 1025,5 hPa 0,0 mm 1,9 mm 0,0 km/h 0,0 km/h S 0,0 W/qm 0,0 nein 19:05
19:10-0,5 °C 2,8 °C 2,8 °C 64 % 1025,6 hPa 0,0 mm 1,9 mm 0,0 km/h 0,0 km/h S 0,0 W/qm 0,0 nein 19:10
19:15-0,8 °C 2,8 °C 2,8 °C 66 % 1025,7 hPa 0,0 mm - 0,0 km/h 0,0 km/h S 0,0 W/qm 0,0 nein 19:15
19:20-0,9 °C 2,8 °C 2,8 °C 67 % 1025,6 hPa 0,0 mm - 0,0 km/h 0,0 km/h S 0,0 W/qm 0,0 nein 19:20
19:25-1,1 °C 2,8 °C 2,8 °C 67 % 1025,7 hPa 0,0 mm - 0,0 km/h 0,0 km/h S 0,0 W/qm 0,0 nein 19:25
19:30-1,1 °C 2,8 °C 2,8 °C 66 % 1025,8 hPa 0,0 mm - 0,0 km/h 0,0 km/h S 0,0 W/qm 0,0 nein 19:30
19:35-1,1 °C 2,8 °C 2,8 °C 66 % 1025,8 hPa 0,0 mm - 0,0 km/h 0,0 km/h S 0,0 W/qm 0,0 nein 19:35
19:40-1,6 °C 2,8 °C 2,8 °C 69 % 1025,9 hPa 0,0 mm - 0,0 km/h 0,0 km/h S 0,0 W/qm 0,0 nein 19:40
19:45-1,7 °C 2,8 °C 2,8 °C 69 % 1025,9 hPa 0,0 mm - 0,0 km/h 0,0 km/h S 0,0 W/qm 0,0 nein 19:45
19:50-1,8 °C 2,8 °C 2,8 °C 70 % 1026,0 hPa 0,0 mm - 0,0 km/h 0,0 km/h S 0,0 W/qm 0,0 nein 19:50
19:55-1,7 °C 2,8 °C 2,8 °C 71 % 1026,0 hPa 0,0 mm - 0,0 km/h 0,0 km/h S 0,0 W/qm 0,0 nein 19:55
UhrzeitTemperaturBoden 10cmBoden 20cmFeuchteLuftdruckNiederschlagEvapotranspirationWindWindböenWindrichtungSolarstrahlungUV-IndexSonne?Uhrzeit
20:00-1,7 °C 2,8 °C 2,8 °C 71 % 1026,1 hPa 0,0 mm - 0,0 km/h 3,2 km/h S 0,0 W/qm 0,0 nein 20:00
20:05-1,8 °C 2,8 °C 2,8 °C 73 % 1026,1 hPa 0,0 mm 1,9 mm 0,0 km/h 3,2 km/h S 0,0 W/qm 0,0 nein 20:05
20:10-1,8 °C 2,8 °C 2,8 °C 71 % 1026,1 hPa 0,0 mm 1,9 mm 0,0 km/h 3,2 km/h S 0,0 W/qm 0,0 nein 20:10
20:15-2,0 °C 2,8 °C 2,8 °C 71 % 1026,2 hPa 0,0 mm - 0,0 km/h 0,0 km/h S 0,0 W/qm 0,0 nein 20:15
20:20-2,3 °C 2,8 °C 2,8 °C 72 % 1026,2 hPa 0,0 mm - 0,0 km/h 0,0 km/h S 0,0 W/qm 0,0 nein 20:20
20:25-2,4 °C 2,8 °C 2,8 °C 73 % 1026,2 hPa 0,0 mm - 0,0 km/h 0,0 km/h S 0,0 W/qm 0,0 nein 20:25
20:30-2,5 °C 2,8 °C 2,8 °C 73 % 1026,3 hPa 0,0 mm - 0,0 km/h 0,0 km/h S 0,0 W/qm 0,0 nein 20:30
20:35-2,4 °C 2,8 °C 2,8 °C 72 % 1026,2 hPa 0,0 mm - 0,0 km/h 0,0 km/h S 0,0 W/qm 0,0 nein 20:35
20:40-2,4 °C 2,8 °C 2,8 °C 73 % 1026,2 hPa 0,0 mm - 0,0 km/h 1,4 km/h S 0,0 W/qm 0,0 nein 20:40
20:45-2,6 °C 2,8 °C 2,8 °C 73 % 1026,3 hPa 0,0 mm - 0,0 km/h 1,4 km/h S 0,0 W/qm 0,0 nein 20:45
20:50-2,9 °C 2,8 °C 2,8 °C 74 % 1026,4 hPa 0,0 mm - 0,0 km/h 1,4 km/h S 0,0 W/qm 0,0 nein 20:50
20:55-2,8 °C 2,8 °C 2,8 °C 75 % 1026,4 hPa 0,0 mm - 0,0 km/h 1,4 km/h S 0,0 W/qm 0,0 nein 20:55
21:00-2,9 °C 2,8 °C 2,8 °C 76 % 1026,4 hPa 0,0 mm - 0,0 km/h 3,2 km/h S 0,0 W/qm 0,0 nein 21:00
21:05-2,8 °C 2,8 °C 2,8 °C 75 % 1026,4 hPa 0,0 mm 1,9 mm 0,0 km/h 3,2 km/h S 0,0 W/qm 0,0 nein 21:05
21:10-2,9 °C 2,8 °C 2,8 °C 74 % 1026,5 hPa 0,0 mm 1,9 mm 0,0 km/h 3,2 km/h S 0,0 W/qm 0,0 nein 21:10
21:15-3,2 °C 2,8 °C 2,8 °C 76 % 1026,7 hPa 0,0 mm - 0,0 km/h 1,4 km/h S 0,0 W/qm 0,0 nein 21:15
21:20-3,2 °C 2,8 °C 2,8 °C 76 % 1026,8 hPa 0,0 mm - 0,0 km/h 1,4 km/h S 0,0 W/qm 0,0 nein 21:20
21:25-3,2 °C 2,8 °C 2,8 °C 76 % 1026,9 hPa 0,0 mm - 0,0 km/h 0,0 km/h S 0,0 W/qm 0,0 nein 21:25
21:30-3,2 °C 2,8 °C 2,8 °C 76 % 1026,9 hPa 0,0 mm - 0,0 km/h 0,0 km/h S 0,0 W/qm 0,0 nein 21:30
21:35-3,3 °C 2,2 °C 2,8 °C 76 % 1026,9 hPa 0,0 mm - 0,0 km/h 0,0 km/h S 0,0 W/qm 0,0 nein 21:35
21:40-3,4 °C 2,2 °C 2,8 °C 76 % 1026,9 hPa 0,0 mm - 0,0 km/h 0,0 km/h S 0,0 W/qm 0,0 nein 21:40
21:45-3,5 °C 2,2 °C 2,8 °C 77 % 1026,9 hPa 0,0 mm - 0,0 km/h 0,0 km/h S 0,0 W/qm 0,0 nein 21:45
21:50-3,6 °C 2,2 °C 2,8 °C 77 % 1027,1 hPa 0,0 mm - 0,0 km/h 0,0 km/h S 0,0 W/qm 0,0 nein 21:50
21:55-3,6 °C 2,2 °C 2,8 °C 78 % 1027,1 hPa 0,0 mm - 0,0 km/h 0,0 km/h S 0,0 W/qm 0,0 nein 21:55
UhrzeitTemperaturBoden 10cmBoden 20cmFeuchteLuftdruckNiederschlagEvapotranspirationWindWindböenWindrichtungSolarstrahlungUV-IndexSonne?Uhrzeit
22:00-3,6 °C 2,2 °C 2,8 °C 78 % 1026,9 hPa 0,0 mm - 0,0 km/h 0,0 km/h S 0,0 W/qm 0,0 nein 22:00
22:05-3,6 °C 2,2 °C 2,8 °C 78 % 1026,9 hPa 0,0 mm 1,9 mm 0,0 km/h 0,0 km/h S 0,0 W/qm 0,0 nein 22:05
22:10-3,6 °C 2,2 °C 2,8 °C 78 % 1027,1 hPa 0,0 mm 1,9 mm 0,0 km/h 0,0 km/h S 0,0 W/qm 0,0 nein 22:10
22:15-3,8 °C 2,2 °C 2,8 °C 78 % 1027,2 hPa 0,0 mm - 0,0 km/h 0,0 km/h S 0,0 W/qm 0,0 nein 22:15
22:20-3,9 °C 2,2 °C 2,8 °C 79 % 1027,1 hPa 0,0 mm - 0,0 km/h 0,0 km/h S 0,0 W/qm 0,0 nein 22:20
22:25-3,9 °C 2,2 °C 2,8 °C 80 % 1027,2 hPa 0,0 mm - 0,0 km/h 0,0 km/h S 0,0 W/qm 0,0 nein 22:25
22:30-3,8 °C 2,2 °C 2,8 °C 80 % 1027,2 hPa 0,0 mm - 0,0 km/h 0,0 km/h S 0,0 W/qm 0,0 nein 22:30
22:35-3,9 °C 2,2 °C 2,8 °C 80 % 1027,2 hPa 0,0 mm - 0,0 km/h 0,0 km/h S 0,0 W/qm 0,0 nein 22:35
22:40-4,0 °C 2,2 °C 2,8 °C 80 % 1027,1 hPa 0,0 mm - 0,0 km/h 0,0 km/h S 0,0 W/qm 0,0 nein 22:40
22:45-4,3 °C 2,2 °C 2,8 °C 80 % 1027,3 hPa 0,0 mm - 0,0 km/h 0,0 km/h S 0,0 W/qm 0,0 nein 22:45
22:50-4,4 °C 2,2 °C 2,8 °C 80 % 1027,3 hPa 0,0 mm - 0,0 km/h 0,0 km/h S 0,0 W/qm 0,0 nein 22:50
22:55-4,5 °C 2,2 °C 2,8 °C 81 % 1027,3 hPa 0,0 mm - 0,0 km/h 0,0 km/h S 0,0 W/qm 0,0 nein 22:55
23:00-4,3 °C 2,2 °C 2,8 °C 82 % 1027,2 hPa 0,0 mm - 0,0 km/h 1,4 km/h S 0,0 W/qm 0,0 nein 23:00
23:05-4,4 °C 2,2 °C 2,8 °C 81 % 1027,2 hPa 0,0 mm 1,9 mm 0,0 km/h 1,4 km/h S 0,0 W/qm 0,0 nein 23:05
23:10-4,4 °C 2,2 °C 2,8 °C 82 % 1027,2 hPa 0,0 mm 1,9 mm 0,0 km/h 1,4 km/h S 0,0 W/qm 0,0 nein 23:10
23:15-4,4 °C 2,2 °C 2,8 °C 81 % 1027,3 hPa 0,0 mm - 0,0 km/h 0,0 km/h S 0,0 W/qm 0,0 nein 23:15
23:20-4,3 °C 2,2 °C 2,8 °C 82 % 1027,4 hPa 0,0 mm - 0,0 km/h 0,0 km/h S 0,0 W/qm 0,0 nein 23:20
23:25-4,4 °C 2,2 °C 2,8 °C 81 % 1027,4 hPa 0,0 mm - 0,0 km/h 0,0 km/h S 0,0 W/qm 0,0 nein 23:25
23:30-4,4 °C 2,2 °C 2,8 °C 81 % 1027,4 hPa 0,0 mm - 0,0 km/h 0,0 km/h S 0,0 W/qm 0,0 nein 23:30
23:35-4,4 °C 2,2 °C 2,8 °C 81 % 1027,4 hPa 0,0 mm - 0,0 km/h 0,0 km/h S 0,0 W/qm 0,0 nein 23:35
23:40-4,4 °C 2,2 °C 2,8 °C 82 % 1027,5 hPa 0,0 mm - 0,0 km/h 0,0 km/h S 0,0 W/qm 0,0 nein 23:40
23:45-4,4 °C 2,2 °C 2,8 °C 82 % 1027,5 hPa 0,0 mm - 0,0 km/h 0,0 km/h S 0,0 W/qm 0,0 nein 23:45
23:50-4,6 °C 2,2 °C 2,8 °C 82 % 1027,4 hPa 0,0 mm - 0,0 km/h 0,0 km/h S 0,0 W/qm 0,0 nein 23:50
23:55-4,7 °C 2,2 °C 2,8 °C 82 % 1027,5 hPa 0,0 mm - 0,0 km/h 0,0 km/h S 0,0 W/qm 0,0 nein 23:55
Gesamt: -1,1 °C 2,0 °C 2,6 °C 69 % 1026,6 hPa 0,0 mm 39,3 mm 1,8 km/h 5,7 km/h 0 170,7 W/qm 0,5 ja

Insgesamt 288 Zeilen mal 13 Spalten = 3744 Werte werden angezeigt.

www.wetter-rosstal.de   •   www.wetter-franken.de   •   www.lightningmaps.org   •   Start   •   Kontakt / Datenschutz   •   PC-Kümmerer